Time;durP1;ratioP1;P1;durP2;ratioP2;P2;SDS_P1;SDS_P2;PMS_P1;PMS_P2;Temp;Humidity;BMP_temperature;BMP_pressure;BME280_temperature;BME280_humidity;BME280_pressure;Samples;Min_cycle;Max_cycle;Signal;HPM_P1;HPM_P2
2021/12/27 00:00:38;;;;;;;;;;;-1.40;99.90;;;;;;6124239;23;20167;-88
2021/12/27 00:03:04;;;;;;;;;;;-1.50;99.90;;;;;;6127068;23;19928;-84
2021/12/27 00:05:33;;;;;;;;;;;-1.50;99.90;;;;;;6123269;23;19937;-85
2021/12/27 00:08:02;;;;;;;;;;;-1.50;99.90;;;;;;6128364;23;19924;-86
2021/12/27 00:10:28;;;;;;;;;;;-1.50;99.90;;;;;;6153220;23;19959;-84
2021/12/27 00:12:54;;;;;;;;;;;-1.50;99.90;;;;;;6148440;23;19920;-85
2021/12/27 00:43:49;;;;;;;;;;;-1.60;99.90;;;;;;6145666;23;19998;-83
2021/12/27 01:01:46;;;;;;;;;;;-1.80;99.90;;;;;;6143270;23;19920;-83
2021/12/27 01:07:54;;;;;;;;;;;-1.80;99.90;;;;;;6147757;23;19924;-83
2021/12/27 01:13:05;;;;;;;;;;;-1.90;99.90;;;;;;6117325;23;20159;-83
2021/12/27 02:13:41;;;;;;;;;;;-1.90;99.90;;;;;;6177791;23;19958;-85
2021/12/27 02:33:53;;;;;;;;;;;-1.90;99.90;;;;;;6143501;23;19936;-85
2021/12/27 02:36:19;;;;;;;;;;;-1.60;99.90;;;;;;6115505;23;19925;-82
2021/12/27 02:38:45;;;;;;;;;;;-1.90;99.90;;;;;;6143105;23;20250;-84
2021/12/27 02:41:11;;;;;;;;;;;-0.40;99.90;;;;;;6115800;23;19920;-85
2021/12/27 02:43:39;;;;;;;;;;;-2.10;99.90;;;;;;6141816;23;19987;-85
2021/12/27 02:46:06;;;;;;;;;;;-1.20;99.90;;;;;;6138871;23;20019;-85
2021/12/27 02:48:44;;;;;;;;;;;-1.00;99.90;;;;;;6141218;23;20021;-85
2021/12/27 02:51:10;;;;;;;;;;;-1.80;99.90;;;;;;6113882;23;20021;-84
2021/12/27 02:53:38;;;;;;;;;;;-1.80;99.90;;;;;;6140946;23;19920;-86
2021/12/27 02:56:06;;;;;;;;;;;-1.80;99.90;;;;;;6113497;23;19920;-85
2021/12/27 02:58:32;;;;;;;;;;;-1.80;99.90;;;;;;6119400;23;19920;-84
2021/12/27 03:00:58;;;;;;;;;;;-1.80;99.90;;;;;;6141757;23;20229;-83
2021/12/27 03:03:23;;;;;;;;;;;-1.80;99.90;;;;;;6141205;23;20019;-86
2021/12/27 03:05:49;;;;;;;;;;;-1.80;99.90;;;;;;6143370;23;20266;-83
2021/12/27 03:08:17;;;;;;;;;;;-1.80;99.90;;;;;;6117841;23;19924;-83
2021/12/27 03:10:47;;;;;;;;;;;-1.70;99.90;;;;;;6093456;23;19921;-83
2021/12/27 03:13:17;;;;;;;;;;;-1.70;99.90;;;;;;6141115;23;19931;-83
2021/12/27 03:15:42;;;;;;;;;;;-1.70;99.90;;;;;;6137948;23;19931;-86
2021/12/27 03:18:08;;;;;;;;;;;-1.70;99.90;;;;;;6141702;23;19921;-84
2021/12/27 03:20:36;;;;;;;;;;;-1.70;99.90;;;;;;6141200;23;19925;-84
2021/12/27 03:23:02;;;;;;;;;;;-1.70;99.90;;;;;;6114828;23;19931;-83
2021/12/27 03:25:28;;;;;;;;;;;-1.70;99.90;;;;;;6142317;23;20338;-85
2021/12/27 03:27:53;;;;;;;;;;;-1.70;99.90;;;;;;6117847;23;19940;-84
2021/12/27 03:30:21;;;;;;;;;;;-1.70;99.90;;;;;;6139826;23;19954;-84
2021/12/27 03:32:47;;;;;;;;;;;-1.60;99.90;;;;;;6145892;23;19924;-84
2021/12/27 03:35:15;;;;;;;;;;;-1.60;99.90;;;;;;6141575;23;19979;-86
2021/12/27 03:37:45;;;;;;;;;;;-1.60;99.90;;;;;;6141412;23;19924;-85
2021/12/27 03:40:12;;;;;;;;;;;-1.60;99.90;;;;;;6117294;23;20352;-86
2021/12/27 03:42:38;;;;;;;;;;;-1.60;99.90;;;;;;6115516;23;20194;-84
2021/12/27 03:45:06;;;;;;;;;;;-1.60;99.90;;;;;;6140621;23;19979;-84
2021/12/27 03:47:32;;;;;;;;;;;-1.60;99.90;;;;;;6115614;23;19928;-86
2021/12/27 03:49:58;;;;;;;;;;;-1.50;99.90;;;;;;6115452;23;19955;-83
2021/12/27 03:52:24;;;;;;;;;;;-1.50;99.90;;;;;;6115914;23;20198;-84
2021/12/27 03:54:49;;;;;;;;;;;-1.50;99.90;;;;;;6116694;23;20298;-84
2021/12/27 03:57:15;;;;;;;;;;;-1.50;99.90;;;;;;6139987;23;19925;-87
2021/12/27 04:02:10;;;;;;;;;;;-1.40;99.90;;;;;;6119948;23;19928;-85
2021/12/27 04:04:36;;;;;;;;;;;-1.50;99.90;;;;;;6119416;23;20004;-87
2021/12/27 04:07:03;;;;;;;;;;;-1.40;99.90;;;;;;6145840;23;20003;-83
2021/12/27 04:09:31;;;;;;;;;;;-1.40;99.90;;;;;;6142360;23;19924;-85
2021/12/27 04:11:57;;;;;;;;;;;-1.40;99.90;;;;;;6115019;23;19924;-83
2021/12/27 04:14:25;;;;;;;;;;;-1.40;99.90;;;;;;6145582;23;19921;-87
2021/12/27 04:16:52;;;;;;;;;;;-1.40;99.90;;;;;;6118487;23;20378;-85
2021/12/27 04:19:17;;;;;;;;;;;-1.40;99.90;;;;;;6116704;23;20324;-84
2021/12/27 04:21:43;;;;;;;;;;;-1.40;99.90;;;;;;6139950;23;20003;-85
2021/12/27 04:24:08;;;;;;;;;;;-1.40;99.90;;;;;;6143037;23;19921;-86
2021/12/27 04:26:34;;;;;;;;;;;-1.30;99.90;;;;;;6143010;23;20011;-86
2021/12/27 04:28:59;;;;;;;;;;;-1.30;99.90;;;;;;6142615;23;20298;-89
2021/12/27 04:31:25;;;;;;;;;;;-0.90;99.90;;;;;;6145145;23;19920;-84
2021/12/27 04:33:50;;;;;;;;;;;-1.30;99.90;;;;;;6118947;23;19951;-87
2021/12/27 04:36:16;;;;;;;;;;;-1.30;99.90;;;;;;6141152;23;19929;-84
2021/12/27 04:38:44;;;;;;;;;;;-1.30;99.90;;;;;;6122468;23;19943;-85
2021/12/27 04:41:12;;;;;;;;;;;-1.30;99.90;;;;;;6142036;23;19928;-83
2021/12/27 04:43:37;;;;;;;;;;;-1.30;99.90;;;;;;6118140;23;20016;-84
2021/12/27 04:46:03;;;;;;;;;;;-1.20;99.90;;;;;;6144356;23;20278;-84
2021/12/27 04:48:28;;;;;;;;;;;-1.20;99.90;;;;;;6118342;23;20650;-83
2021/12/27 04:50:54;;;;;;;;;;;-1.20;99.90;;;;;;6143743;23;19955;-84
2021/12/27 04:53:20;;;;;;;;;;;-1.20;99.90;;;;;;6120772;23;20007;-86
2021/12/27 04:55:46;;;;;;;;;;;-1.20;99.90;;;;;;6142766;23;20225;-83
2021/12/27 04:58:12;;;;;;;;;;;-1.20;99.90;;;;;;6146986;23;19924;-84
2021/12/27 05:00:38;;;;;;;;;;;-1.20;99.90;;;;;;6146080;23;19928;-84
2021/12/27 05:03:04;;;;;;;;;;;-1.20;99.90;;;;;;6146916;23;20218;-90
2021/12/27 05:05:32;;;;;;;;;;;-1.20;99.90;;;;;;6148471;23;20381;-86
2021/12/27 05:07:59;;;;;;;;;;;-1.10;99.90;;;;;;6149118;23;19931;-83
2021/12/27 05:10:25;;;;;;;;;;;-1.10;99.90;;;;;;6121561;23;19924;-84
2021/12/27 05:12:50;;;;;;;;;;;-1.10;99.90;;;;;;6121969;23;19925;-83
2021/12/27 05:15:16;;;;;;;;;;;-1.10;99.90;;;;;;6146674;23;19928;-83
2021/12/27 05:17:42;;;;;;;;;;;-1.10;99.90;;;;;;6146024;23;20048;-83
2021/12/27 05:20:08;;;;;;;;;;;-1.10;99.90;;;;;;6146408;23;19924;-83
2021/12/27 05:22:34;;;;;;;;;;;-1.00;99.90;;;;;;6147769;23;19920;-83
2021/12/27 05:25:00;;;;;;;;;;;-1.00;99.90;;;;;;6126734;23;19943;-84
2021/12/27 05:27:25;;;;;;;;;;;-1.00;99.90;;;;;;6125852;23;19969;-85
2021/12/27 05:29:51;;;;;;;;;;;-1.00;99.90;;;;;;6145772;23;20248;-83
2021/12/27 05:32:16;;;;;;;;;;;-1.00;99.90;;;;;;6147951;23;19921;-84
2021/12/27 05:34:42;;;;;;;;;;;-1.00;99.90;;;;;;6148021;23;19963;-84
2021/12/27 05:37:07;;;;;;;;;;;-0.90;99.90;;;;;;6121528;23;19917;-83
2021/12/27 05:39:33;;;;;;;;;;;-1.00;99.90;;;;;;6120778;23;19963;-84
2021/12/27 05:41:59;;;;;;;;;;;-0.90;99.90;;;;;;6144558;23;19929;-82
2021/12/27 05:44:24;;;;;;;;;;;-0.90;99.90;;;;;;6146403;23;20296;-86
2021/12/27 05:46:50;;;;;;;;;;;-0.90;99.90;;;;;;6123496;23;19920;-84
2021/12/27 05:49:16;;;;;;;;;;;-0.90;99.90;;;;;;6148542;23;19951;-84
2021/12/27 05:51:43;;;;;;;;;;;-0.90;99.90;;;;;;6144750;23;19998;-83
2021/12/27 05:54:09;;;;;;;;;;;-0.90;99.90;;;;;;6124149;23;19921;-85
2021/12/27 05:56:35;;;;;;;;;;;-0.90;99.90;;;;;;6122900;23;19920;-84
2021/12/27 05:59:00;;;;;;;;;;;-0.90;99.90;;;;;;6124718;23;19921;-83
2021/12/27 06:01:27;;;;;;;;;;;-0.90;99.90;;;;;;6123363;23;19963;-84
2021/12/27 06:03:55;;;;;;;;;;;-0.90;99.90;;;;;;6121833;23;19936;-84
2021/12/27 06:06:20;;;;;;;;;;;-0.80;99.90;;;;;;6120775;23;19921;-85
2021/12/27 06:08:46;;;;;;;;;;;-0.80;99.90;;;;;;6123334;23;19928;-84
2021/12/27 06:11:11;;;;;;;;;;;-0.40;99.90;;;;;;6146907;23;19925;-84
2021/12/27 06:13:37;;;;;;;;;;;-0.80;99.90;;;;;;6123863;23;19925;-83
2021/12/27 06:16:02;;;;;;;;;;;-0.90;99.90;;;;;;6149000;23;19932;-86
2021/12/27 06:18:28;;;;;;;;;;;-0.80;99.90;;;;;;6120449;23;19992;-83
2021/12/27 06:20:53;;;;;;;;;;;-0.90;99.90;;;;;;6147842;23;20000;-83
2021/12/27 06:23:19;;;;;;;;;;;-0.80;99.90;;;;;;6123707;23;19920;-83
2021/12/27 06:25:45;;;;;;;;;;;-0.80;99.90;;;;;;6147600;23;19931;-83
2021/12/27 06:28:11;;;;;;;;;;;-0.80;99.90;;;;;;6147725;23;19921;-83
2021/12/27 06:30:36;;;;;;;;;;;-0.80;99.90;;;;;;6124113;23;19924;-83
2021/12/27 06:33:02;;;;;;;;;;;-0.80;99.90;;;;;;6147346;23;20000;-82
2021/12/27 06:35:27;;;;;;;;;;;-0.80;99.90;;;;;;6147928;23;20285;-83
2021/12/27 06:37:56;;;;;;;;;;;-0.80;99.90;;;;;;6150103;23;19925;-84
2021/12/27 06:40:21;;;;;;;;;;;-0.80;99.90;;;;;;6147359;23;19995;-85
2021/12/27 06:42:47;;;;;;;;;;;-0.80;99.90;;;;;;6146893;23;19928;-83
2021/12/27 06:45:12;;;;;;;;;;;-0.80;99.90;;;;;;6148286;23;20398;-83
2021/12/27 06:47:38;;;;;;;;;;;-0.80;99.90;;;;;;6121524;23;20238;-82
2021/12/27 06:50:05;;;;;;;;;;;-0.80;99.90;;;;;;6124098;23;19984;-83
2021/12/27 06:52:30;;;;;;;;;;;-0.70;99.90;;;;;;6122413;23;20701;-84
2021/12/27 06:54:56;;;;;;;;;;;-0.70;99.90;;;;;;6149722;23;19924;-84
2021/12/27 06:57:21;;;;;;;;;;;-0.70;99.90;;;;;;6148998;23;19925;-83
2021/12/27 06:59:47;;;;;;;;;;;-0.70;99.90;;;;;;6148586;23;19955;-84
2021/12/27 07:02:13;;;;;;;;;;;-0.70;99.90;;;;;;6146747;23;19944;-84
2021/12/27 07:04:38;;;;;;;;;;;-0.70;99.90;;;;;;6147895;23;19932;-83
2021/12/27 07:07:04;;;;;;;;;;;-0.70;99.90;;;;;;6147628;23;20250;-84
2021/12/27 07:09:29;;;;;;;;;;;-0.70;99.90;;;;;;6122992;23;20051;-84
2021/12/27 07:11:55;;;;;;;;;;;-0.70;99.90;;;;;;6123326;23;19924;-84
2021/12/27 07:14:20;;;;;;;;;;;-0.70;99.90;;;;;;6124295;23;19921;-87
2021/12/27 07:16:46;;;;;;;;;;;-0.70;99.90;;;;;;6148307;23;20257;-84
2021/12/27 07:19:11;;;;;;;;;;;-0.70;99.90;;;;;;6147417;23;20620;-84
2021/12/27 07:21:37;;;;;;;;;;;-0.60;99.90;;;;;;6121898;23;19932;-84
2021/12/27 07:24:03;;;;;;;;;;;-0.60;99.90;;;;;;6148083;23;19921;-86
2021/12/27 07:26:28;;;;;;;;;;;-0.60;99.90;;;;;;6147381;23;19921;-84
2021/12/27 07:28:54;;;;;;;;;;;-0.70;99.90;;;;;;6122254;23;20063;-86
2021/12/27 07:31:19;;;;;;;;;;;-0.60;99.90;;;;;;6148312;23;19975;-86
2021/12/27 07:33:45;;;;;;;;;;;-0.60;99.90;;;;;;6148816;23;20153;-86
2021/12/27 07:36:11;;;;;;;;;;;-0.60;99.90;;;;;;6146632;23;19925;-84
2021/12/27 07:38:38;;;;;;;;;;;-0.60;99.90;;;;;;6147861;23;20293;-84
2021/12/27 07:41:04;;;;;;;;;;;-0.60;99.90;;;;;;6146942;23;19924;-87
2021/12/27 07:43:29;;;;;;;;;;;-0.60;99.90;;;;;;6146222;23;20309;-84
2021/12/27 07:45:55;;;;;;;;;;;-0.60;99.90;;;;;;6148245;23;19924;-85
2021/12/27 07:48:21;;;;;;;;;;;-0.60;99.90;;;;;;6121497;23;19927;-85
2021/12/27 07:50:46;;;;;;;;;;;-0.60;99.90;;;;;;6121643;23;20218;-85
2021/12/27 07:53:12;;;;;;;;;;;-0.60;99.90;;;;;;6122454;23;20026;-86
2021/12/27 07:55:37;;;;;;;;;;;-0.60;99.90;;;;;;6149270;23;20265;-85
2021/12/27 07:58:03;;;;;;;;;;;-0.60;99.90;;;;;;6122593;23;19935;-85
2021/12/27 08:00:29;;;;;;;;;;;-0.60;99.90;;;;;;6123208;23;19968;-85
2021/12/27 08:02:55;;;;;;;;;;;-0.60;99.90;;;;;;6150723;23;19927;-86
2021/12/27 08:05:20;;;;;;;;;;;-0.60;99.90;;;;;;6151289;23;19995;-85
2021/12/27 08:07:46;;;;;;;;;;;-0.60;99.90;;;;;;6148551;23;20004;-85
2021/12/27 08:10:12;;;;;;;;;;;-0.50;99.90;;;;;;6150107;23;19921;-86
2021/12/27 08:12:40;;;;;;;;;;;-0.50;99.90;;;;;;6147752;23;19971;-86
2021/12/27 08:15:06;;;;;;;;;;;-0.50;99.90;;;;;;6126665;23;19960;-86
2021/12/27 08:17:32;;;;;;;;;;;-0.50;99.90;;;;;;6124510;23;19917;-85
2021/12/27 08:19:57;;;;;;;;;;;-0.50;99.90;;;;;;6147357;23;19921;-86
2021/12/27 08:22:23;;;;;;;;;;;-0.50;99.90;;;;;;6126539;23;19995;-86
2021/12/27 08:24:49;;;;;;;;;;;-0.50;99.90;;;;;;6133514;23;19944;-86
2021/12/27 08:27:14;;;;;;;;;;;-0.40;99.90;;;;;;6123584;23;19996;-86
2021/12/27 08:29:40;;;;;;;;;;;-0.50;99.90;;;;;;6149278;23;19952;-87
2021/12/27 08:32:06;;;;;;;;;;;-0.50;99.90;;;;;;6147203;23;19956;-85
2021/12/27 08:34:32;;;;;;;;;;;-0.40;99.90;;;;;;6123336;23;19920;-86
2021/12/27 08:36:58;;;;;;;;;;;0.80;99.90;;;;;;6148736;23;20334;-87
2021/12/27 08:39:23;;;;;;;;;;;-0.40;99.90;;;;;;6124180;23;19998;-86
2021/12/27 08:41:50;;;;;;;;;;;-0.40;99.90;;;;;;6123969;23;19928;-85
2021/12/27 08:44:16;;;;;;;;;;;-0.40;99.90;;;;;;6125321;23;20008;-87
2021/12/27 08:46:42;;;;;;;;;;;-0.40;99.90;;;;;;6151234;23;20250;-87
2021/12/27 08:49:08;;;;;;;;;;;-0.10;99.90;;;;;;6125142;23;19920;-87
2021/12/27 08:51:34;;;;;;;;;;;-0.30;99.90;;;;;;6127147;23;19920;-89
2021/12/27 08:53:59;;;;;;;;;;;-0.30;99.90;;;;;;6127719;23;19967;-87
2021/12/27 08:56:25;;;;;;;;;;;-0.30;99.90;;;;;;6126804;23;19927;-88
2021/12/27 08:58:54;;;;;;;;;;;-0.30;99.90;;;;;;6152918;23;19921;-87
2021/12/27 09:01:20;;;;;;;;;;;-0.30;99.90;;;;;;6126072;23;20362;-88
2021/12/27 09:03:46;;;;;;;;;;;-0.30;99.90;;;;;;6153710;23;19988;-92
2021/12/27 09:06:11;;;;;;;;;;;-0.30;99.90;;;;;;6126933;23;19972;-88
2021/12/27 09:08:37;;;;;;;;;;;-0.30;99.90;;;;;;6126426;23;19921;-87
2021/12/27 09:11:02;;;;;;;;;;;-0.30;99.90;;;;;;6126621;23;19920;-88
2021/12/27 09:13:29;;;;;;;;;;;-0.20;99.90;;;;;;6149877;23;19928;-87
2021/12/27 09:15:55;;;;;;;;;;;-0.20;99.90;;;;;;6127566;23;19919;-89
2021/12/27 09:18:21;;;;;;;;;;;-0.20;99.90;;;;;;6130671;23;19991;-89
2021/12/27 09:20:46;;;;;;;;;;;0.40;99.90;;;;;;6132759;23;19948;-92
2021/12/27 09:23:12;;;;;;;;;;;-0.10;99.90;;;;;;6132993;23;19931;-90
2021/12/27 09:25:37;;;;;;;;;;;-0.10;99.90;;;;;;6130718;23;19928;-89
2021/12/27 09:28:03;;;;;;;;;;;-0.10;99.90;;;;;;6155290;23;20309;-88
2021/12/27 09:30:29;;;;;;;;;;;-0.10;99.90;;;;;;6126909;23;19924;-88
2021/12/27 09:32:54;;;;;;;;;;;-0.10;99.90;;;;;;6130364;23;19921;-89
2021/12/27 09:35:20;;;;;;;;;;;-0.10;99.90;;;;;;6127127;23;19921;-89
2021/12/27 09:37:46;;;;;;;;;;;-0.30;99.90;;;;;;6154052;23;19925;-90
2021/12/27 09:40:11;;;;;;;;;;;0.00;99.90;;;;;;6134129;23;19932;-91
2021/12/27 09:42:37;;;;;;;;;;;0.00;99.90;;;;;;6153171;23;19921;-90
2021/12/27 09:45:05;;;;;;;;;;;0.00;99.90;;;;;;6158488;23;19938;-91
2021/12/27 09:47:31;;;;;;;;;;;0.00;99.90;;;;;;6126525;23;19925;-89
2021/12/27 09:49:57;;;;;;;;;;;0.10;99.90;;;;;;6127090;23;20249;-88
2021/12/27 09:52:22;;;;;;;;;;;0.00;99.90;;;;;;6125959;23;19924;-90
2021/12/27 09:54:48;;;;;;;;;;;0.10;99.90;;;;;;6129577;23;20053;-90
2021/12/27 09:57:14;;;;;;;;;;;0.00;99.90;;;;;;6155899;23;19921;-91
2021/12/27 09:59:40;;;;;;;;;;;1.20;99.90;;;;;;6154225;23;20046;-90
2021/12/27 10:02:06;;;;;;;;;;;0.10;99.90;;;;;;6126003;23;20004;-89
2021/12/27 10:04:32;;;;;;;;;;;0.10;99.90;;;;;;6124704;23;19927;-88
2021/12/27 10:06:57;;;;;;;;;;;0.10;99.90;;;;;;6127980;23;19925;-88
2021/12/27 10:09:23;;;;;;;;;;;0.10;99.90;;;;;;6157173;23;19929;-87
2021/12/27 10:11:48;;;;;;;;;;;0.20;99.90;;;;;;6150767;23;19916;-87
2021/12/27 10:14:24;;;;;;;;;;;0.20;99.90;;;;;;6154918;23;20028;-88
2021/12/27 10:16:54;;;;;;;;;;;0.20;99.90;;;;;;6151069;23;19921;-87
2021/12/27 10:19:21;;;;;;;;;;;0.20;99.90;;;;;;6124553;23;19920;-87
2021/12/27 10:21:48;;;;;;;;;;;0.20;99.90;;;;;;6124177;23;19997;-88
2021/12/27 10:24:21;;;;;;;;;;;0.20;99.90;;;;;;6151420;23;20007;-88
2021/12/27 10:26:49;;;;;;;;;;;0.20;99.90;;;;;;6153301;23;19920;-83
2021/12/27 10:29:23;;;;;;;;;;;0.30;99.90;;;;;;6149884;23;19933;-85
2021/12/27 10:31:54;;;;;;;;;;;0.30;99.90;;;;;;6127973;23;19921;-87
2021/12/27 10:34:21;;;;;;;;;;;0.30;99.90;;;;;;6159014;23;19983;-87
2021/12/27 10:37:16;;;;;;;;;;;0.30;99.90;;;;;;6130707;23;19924;-84
2021/12/27 10:39:51;;;;;;;;;;;0.30;99.90;;;;;;6105289;23;19920;-86
2021/12/27 10:42:18;;;;;;;;;;;0.40;99.90;;;;;;6154351;23;19921;-91
2021/12/27 10:44:43;;;;;;;;;;;0.40;99.90;;;;;;6133766;23;19951;-91
2021/12/27 10:47:23;;;;;;;;;;;0.40;99.90;;;;;;6128050;23;19921;-90
2021/12/27 10:49:49;;;;;;;;;;;1.40;99.90;;;;;;6151389;23;19924;-85
2021/12/27 10:52:15;;;;;;;;;;;0.40;99.90;;;;;;6125245;23;20011;-87
2021/12/27 10:54:41;;;;;;;;;;;0.40;99.90;;;;;;6157604;23;20214;-85
2021/12/27 10:57:07;;;;;;;;;;;0.40;99.90;;;;;;6129560;23;19955;-88
2021/12/27 10:59:32;;;;;;;;;;;0.50;99.90;;;;;;6129546;23;19925;-90
2021/12/27 11:02:09;;;;;;;;;;;1.10;99.90;;;;;;6130031;23;20202;-90
2021/12/27 11:04:35;;;;;;;;;;;0.50;99.90;;;;;;6155011;23;19931;-91
2021/12/27 11:07:02;;;;;;;;;;;0.50;99.90;;;;;;6152893;23;20346;-89
2021/12/27 11:09:27;;;;;;;;;;;0.80;99.90;;;;;;6151743;23;19921;-89
2021/12/27 11:11:53;;;;;;;;;;;0.50;99.90;;;;;;6150206;23;20376;-86
2021/12/27 11:14:19;;;;;;;;;;;0.60;99.90;;;;;;6127219;23;19928;-91
2021/12/27 11:16:44;;;;;;;;;;;0.60;99.90;;;;;;6128455;23;19988;-88
2021/12/27 11:19:10;;;;;;;;;;;0.60;99.90;;;;;;6128793;23;19921;-90
2021/12/27 11:21:41;;;;;;;;;;;0.70;99.90;;;;;;6166192;23;19997;-89
2021/12/27 11:24:07;;;;;;;;;;;0.70;99.90;;;;;;6169782;23;19921;-89
2021/12/27 11:26:34;;;;;;;;;;;0.70;99.90;;;;;;6152657;23;19921;-89
2021/12/27 11:29:20;;;;;;;;;;;0.70;99.90;;;;;;6149608;23;19931;-87
2021/12/27 11:31:47;;;;;;;;;;;0.70;99.90;;;;;;6148051;23;20454;-84
2021/12/27 11:34:13;;;;;;;;;;;0.80;99.90;;;;;;6149430;23;20000;-84
2021/12/27 11:36:40;;;;;;;;;;;1.10;99.90;;;;;;6121016;23;19921;-84
2021/12/27 11:39:23;;;;;;;;;;;0.80;99.90;;;;;;6148734;23;19928;-85
2021/12/27 11:42:00;;;;;;;;;;;0.80;99.90;;;;;;6147533;23;19928;-85
2021/12/27 11:44:33;;;;;;;;;;;0.80;99.90;;;;;;6148002;23;19935;-84
2021/12/27 11:46:58;;;;;;;;;;;0.80;99.90;;;;;;6123445;23;19932;-85
2021/12/27 11:49:35;;;;;;;;;;;0.90;99.90;;;;;;6147356;23;19925;-85
2021/12/27 11:52:16;;;;;;;;;;;0.80;99.90;;;;;;6123428;23;19932;-83
2021/12/27 11:54:54;;;;;;;;;;;0.80;99.90;;;;;;6122740;23;20046;-83
2021/12/27 11:57:37;;;;;;;;;;;0.80;99.90;;;;;;6146408;23;19923;-84
2021/12/27 12:00:18;;;;;;;;;;;0.80;99.90;;;;;;6122475;23;20015;-85
2021/12/27 12:02:45;;;;;;;;;;;0.90;99.90;;;;;;6147714;23;19920;-83
2021/12/27 12:05:31;;;;;;;;;;;0.90;99.90;;;;;;6121984;23;19924;-84
2021/12/27 12:07:56;;;;;;;;;;;0.90;99.90;;;;;;6121207;23;19921;-83
2021/12/27 12:10:22;;;;;;;;;;;0.90;99.90;;;;;;6147061;23;19927;-83
2021/12/27 12:13:06;;;;;;;;;;;0.90;99.90;;;;;;6122260;23;19928;-83
2021/12/27 12:15:33;;;;;;;;;;;0.90;99.90;;;;;;6121187;23;19947;-85
2021/12/27 12:18:14;;;;;;;;;;;1.10;99.90;;;;;;6145662;23;19925;-83
2021/12/27 12:20:40;;;;;;;;;;;0.90;99.90;;;;;;6149042;23;19920;-82
2021/12/27 12:23:08;;;;;;;;;;;1.00;99.90;;;;;;6145770;23;20825;-82
2021/12/27 12:25:35;;;;;;;;;;;1.00;99.90;;;;;;6148774;23;19927;-83
2021/12/27 12:28:02;;;;;;;;;;;1.00;99.90;;;;;;6150924;23;19926;-84
2021/12/27 12:30:32;;;;;;;;;;;1.10;99.90;;;;;;6149704;23;19928;-83
2021/12/27 12:32:59;;;;;;;;;;;1.10;99.90;;;;;;6123601;23;20202;-83
2021/12/27 12:35:40;;;;;;;;;;;1.10;99.90;;;;;;6149107;23;19924;-84
2021/12/27 12:38:10;;;;;;;;;;;1.10;99.90;;;;;;6149543;23;19921;-83
2021/12/27 12:40:36;;;;;;;;;;;1.10;99.90;;;;;;6149059;23;19928;-83
2021/12/27 12:43:01;;;;;;;;;;;1.20;99.90;;;;;;6123955;23;19920;-83
2021/12/27 12:45:31;;;;;;;;;;;1.20;99.90;;;;;;6147884;23;20249;-82
2021/12/27 12:47:56;;;;;;;;;;;1.20;99.90;;;;;;6125746;23;19979;-83
2021/12/27 12:50:23;;;;;;;;;;;1.20;99.90;;;;;;6150155;23;19928;-83
2021/12/27 12:52:49;;;;;;;;;;;1.20;99.90;;;;;;6148855;23;19920;-84
2021/12/27 12:55:15;;;;;;;;;;;1.20;99.90;;;;;;6149465;23;20253;-84
2021/12/27 12:57:46;;;;;;;;;;;1.20;99.90;;;;;;6148920;23;19921;-83
2021/12/27 13:00:12;;;;;;;;;;;1.20;99.90;;;;;;6150534;23;20349;-82
2021/12/27 13:02:39;;;;;;;;;;;1.20;99.90;;;;;;6149548;23;19924;-81
2021/12/27 13:05:06;;;;;;;;;;;1.20;99.90;;;;;;6125116;23;19921;-85
2021/12/27 13:07:49;;;;;;;;;;;1.50;99.90;;;;;;6123000;23;19968;-83
2021/12/27 13:10:20;;;;;;;;;;;1.20;99.90;;;;;;6147431;23;19931;-85
2021/12/27 13:12:46;;;;;;;;;;;1.20;99.90;;;;;;6149329;23;19920;-84
2021/12/27 13:15:11;;;;;;;;;;;1.20;99.90;;;;;;6122579;23;19976;-85
2021/12/27 13:17:37;;;;;;;;;;;1.20;99.90;;;;;;6124563;23;19920;-84
2021/12/27 13:20:05;;;;;;;;;;;1.90;99.90;;;;;;6148356;23;20245;-85
2021/12/27 13:22:51;;;;;;;;;;;1.30;99.90;;;;;;6123373;23;19924;-85
2021/12/27 13:25:32;;;;;;;;;;;1.10;99.90;;;;;;6120305;23;20298;-83
2021/12/27 13:28:10;;;;;;;;;;;1.10;99.90;;;;;;6146393;23;19925;-84
2021/12/27 13:30:42;;;;;;;;;;;1.10;99.90;;;;;;6147991;23;20416;-85
2021/12/27 13:33:08;;;;;;;;;;;1.10;99.90;;;;;;6123041;23;19931;-84
2021/12/27 13:35:34;;;;;;;;;;;1.10;99.90;;;;;;6145548;23;19921;-84
2021/12/27 13:38:00;;;;;;;;;;;1.10;99.90;;;;;;6147652;23;19920;-84
2021/12/27 13:40:25;;;;;;;;;;;1.10;99.90;;;;;;6147474;23;19924;-84
2021/12/27 13:42:51;;;;;;;;;;;1.10;99.90;;;;;;6147473;23;20462;-84
2021/12/27 13:45:16;;;;;;;;;;;1.10;99.90;;;;;;6147607;23;19921;-84
2021/12/27 13:47:54;;;;;;;;;;;1.10;99.90;;;;;;6124984;23;20321;-83
2021/12/27 13:50:30;;;;;;;;;;;1.10;99.90;;;;;;6148906;23;19932;-84
2021/12/27 13:52:57;;;;;;;;;;;1.10;99.90;;;;;;6123758;23;19929;-82
2021/12/27 13:55:26;;;;;;;;;;;1.20;99.90;;;;;;6123817;23;19927;-85
2021/12/27 13:57:52;;;;;;;;;;;1.10;99.90;;;;;;6146682;23;19920;-84
2021/12/27 14:00:24;;;;;;;;;;;1.10;99.90;;;;;;6149113;23;20227;-82
2021/12/27 14:02:50;;;;;;;;;;;1.10;99.90;;;;;;6122461;23;19999;-83
2021/12/27 14:05:15;;;;;;;;;;;1.10;99.90;;;;;;6124213;23;20014;-84
2021/12/27 14:07:42;;;;;;;;;;;1.10;99.90;;;;;;6146252;23;20007;-83
2021/12/27 14:10:07;;;;;;;;;;;1.10;99.90;;;;;;6122793;23;19921;-82
2021/12/27 14:12:36;;;;;;;;;;;1.20;99.90;;;;;;6147211;23;19952;-83
2021/12/27 14:15:06;;;;;;;;;;;1.20;99.90;;;;;;6149131;23;19924;-84
2021/12/27 14:17:32;;;;;;;;;;;1.20;99.90;;;;;;6145551;23;20036;-82
2021/12/27 14:19:58;;;;;;;;;;;1.20;99.90;;;;;;6125870;23;20018;-83
2021/12/27 14:22:24;;;;;;;;;;;1.20;99.90;;;;;;6150777;23;20024;-84
2021/12/27 14:25:01;;;;;;;;;;;1.20;99.90;;;;;;6145666;23;20002;-84
2021/12/27 14:27:46;;;;;;;;;;;1.20;99.90;;;;;;6122975;23;19920;-83
2021/12/27 14:30:18;;;;;;;;;;;1.20;99.90;;;;;;6123855;23;19995;-84
2021/12/27 14:32:50;;;;;;;;;;;1.20;99.90;;;;;;6147777;23;19925;-83
2021/12/27 14:35:29;;;;;;;;;;;1.20;99.90;;;;;;6148450;23;19924;-83
2021/12/27 14:37:56;;;;;;;;;;;1.20;99.90;;;;;;6123570;23;19971;-83
2021/12/27 14:40:21;;;;;;;;;;;1.20;99.90;;;;;;6123164;23;19933;-83
2021/12/27 14:42:48;;;;;;;;;;;1.20;99.90;;;;;;6121490;23;19924;-83
2021/12/27 14:45:13;;;;;;;;;;;1.20;99.90;;;;;;6150030;23;19921;-84
2021/12/27 14:47:39;;;;;;;;;;;1.20;99.90;;;;;;6150366;23;20024;-84
2021/12/27 14:50:05;;;;;;;;;;;1.20;99.90;;;;;;6121919;23;19929;-83
2021/12/27 14:52:30;;;;;;;;;;;1.20;99.90;;;;;;6122492;23;19956;-83
2021/12/27 14:54:56;;;;;;;;;;;1.30;99.90;;;;;;6147826;23;19958;-82
2021/12/27 14:57:21;;;;;;;;;;;1.30;99.90;;;;;;6123312;23;20591;-83
2021/12/27 14:59:47;;;;;;;;;;;1.30;99.90;;;;;;6146031;23;19932;-82
2021/12/27 15:02:16;;;;;;;;;;;1.30;99.90;;;;;;6150487;23;19925;-83
2021/12/27 15:04:41;;;;;;;;;;;1.30;99.90;;;;;;6149196;23;19930;-82
2021/12/27 15:07:07;;;;;;;;;;;1.30;99.90;;;;;;6147455;23;19921;-82
2021/12/27 15:09:32;;;;;;;;;;;1.30;99.90;;;;;;6145197;23;19928;-83
2021/12/27 15:11:58;;;;;;;;;;;1.30;99.90;;;;;;6122267;23;20294;-82
2021/12/27 15:14:24;;;;;;;;;;;1.30;99.90;;;;;;6122818;23;19995;-83
2021/12/27 15:16:49;;;;;;;;;;;1.30;99.90;;;;;;6147388;23;19928;-82
2021/12/27 15:19:15;;;;;;;;;;;1.30;99.90;;;;;;6148805;23;20052;-83
2021/12/27 15:21:41;;;;;;;;;;;1.20;99.90;;;;;;6121256;23;19972;-83
2021/12/27 15:24:07;;;;;;;;;;;1.20;99.90;;;;;;6148120;23;20257;-83
2021/12/27 15:26:33;;;;;;;;;;;1.30;99.90;;;;;;6120119;23;19927;-85
2021/12/27 15:28:58;;;;;;;;;;;1.30;99.90;;;;;;6121896;23;19920;-86
2021/12/27 15:31:24;;;;;;;;;;;1.30;99.90;;;;;;6147348;23;20484;-80
2021/12/27 15:33:49;;;;;;;;;;;1.30;99.90;;;;;;6146757;23;20379;-83
2021/12/27 15:36:15;;;;;;;;;;;1.30;99.90;;;;;;6147174;23;19959;-83
2021/12/27 15:38:42;;;;;;;;;;;1.30;99.90;;;;;;6146263;23;19991;-83
2021/12/27 15:41:08;;;;;;;;;;;1.30;99.90;;;;;;6143957;23;20031;-84
2021/12/27 15:43:34;;;;;;;;;;;1.30;99.90;;;;;;6118297;23;20001;-83
2021/12/27 15:46:00;;;;;;;;;;;1.30;99.90;;;;;;6119858;23;19917;-84
2021/12/27 15:48:25;;;;;;;;;;;1.30;99.90;;;;;;6143835;23;19925;-85
2021/12/27 15:50:51;;;;;;;;;;;1.30;99.90;;;;;;6143906;23;20708;-84
2021/12/27 15:53:17;;;;;;;;;;;1.30;99.90;;;;;;6119578;23;19970;-83
2021/12/27 15:55:42;;;;;;;;;;;1.30;99.90;;;;;;6145628;23;20009;-84
2021/12/27 15:58:08;;;;;;;;;;;1.30;99.90;;;;;;6144107;23;19927;-79
2021/12/27 16:00:34;;;;;;;;;;;1.30;99.90;;;;;;6119797;23;19944;-81
2021/12/27 16:03:00;;;;;;;;;;;1.30;99.90;;;;;;6135859;23;19952;-80
2021/12/27 16:05:26;;;;;;;;;;;1.30;99.90;;;;;;6118915;23;20616;-80
2021/12/27 16:07:52;;;;;;;;;;;1.20;99.90;;;;;;6119606;23;20401;-80
2021/12/27 16:10:28;;;;;;;;;;;1.20;99.90;;;;;;6118923;23;20455;-81
2021/12/27 16:12:54;;;;;;;;;;;1.20;99.90;;;;;;6139335;23;19974;-80
2021/12/27 16:15:20;;;;;;;;;;;1.70;99.90;;;;;;6123335;23;20380;-81
2021/12/27 16:17:46;;;;;;;;;;;1.20;99.90;;;;;;6143148;23;19931;-80
2021/12/27 16:20:12;;;;;;;;;;;1.20;99.90;;;;;;6143824;23;20246;-81
2021/12/27 16:22:38;;;;;;;;;;;0.70;99.90;;;;;;6142637;23;20361;-80
2021/12/27 16:25:05;;;;;;;;;;;1.20;99.90;;;;;;6142795;23;20408;-79
2021/12/27 16:27:31;;;;;;;;;;;1.20;99.90;;;;;;6143018;23;19924;-82
2021/12/27 16:29:57;;;;;;;;;;;1.60;99.90;;;;;;6145537;23;20357;-82
2021/12/27 16:32:22;;;;;;;;;;;1.20;99.90;;;;;;6143260;23;19920;-83